Time;durP1;ratioP1;P1;durP2;ratioP2;P2;SDS_P1;SDS_P2;PMS_P1;PMS_P2;Temp;Humidity;BMP_temperature;BMP_pressure;BME280_temperature;BME280_humidity;BME280_pressure;Samples;Min_cycle;Max_cycle;Signal;HPM_P1;HPM_P2
2024/01/20 00:01:59;;;;;;;22.77;10.82;;;12.70;99.90;;;;;;4862039;29;20033;-75
2024/01/20 00:04:25;;;;;;;31.38;11.90;;;12.70;99.90;;;;;;4861655;29;20025;-78
2024/01/20 00:06:52;;;;;;;32.50;12.57;;;12.70;99.90;;;;;;4862348;29;20440;-76
2024/01/20 00:09:18;;;;;;;22.65;12.38;;;12.80;99.90;;;;;;4880138;29;20025;-77
2024/01/20 00:11:45;;;;;;;27.70;10.57;;;12.70;99.90;;;;;;4880641;29;20097;-77
2024/01/20 00:14:11;;;;;;;29.33;11.18;;;12.70;99.90;;;;;;4880087;29;20109;-79
2024/01/20 00:16:38;;;;;;;22.00;9.68;;;12.70;99.90;;;;;;4880153;29;20084;-76
2024/01/20 00:19:04;;;;;;;31.75;10.98;;;12.60;99.90;;;;;;4862935;29;20472;-78
2024/01/20 00:21:30;;;;;;;24.70;10.65;;;12.60;99.90;;;;;;4861654;29;20090;-79
2024/01/20 00:23:57;;;;;;;23.63;9.15;;;12.70;99.90;;;;;;4861685;29;20033;-78
2024/01/20 00:26:23;;;;;;;19.48;8.90;;;12.70;99.90;;;;;;4861116;29;20046;-75
2024/01/20 00:28:50;;;;;;;24.52;8.32;;;12.70;99.90;;;;;;4861499;29;20045;-76
2024/01/20 00:31:17;;;;;;;20.83;8.57;;;12.80;99.90;;;;;;4861449;29;20548;-76
2024/01/20 00:33:43;;;;;;;17.33;7.55;;;12.90;99.90;;;;;;4866283;29;20024;-76
2024/01/20 00:36:11;;;;;;;24.50;7.75;;;12.90;99.90;;;;;;4870778;29;20436;-76
2024/01/20 00:38:39;;;;;;;23.98;7.90;;;12.90;99.90;;;;;;4868686;29;20033;-76
2024/01/20 00:41:07;;;;;;;19.27;7.43;;;13.00;99.90;;;;;;4871248;29;20104;-76
2024/01/20 00:43:33;;;;;;;22.38;7.63;;;13.00;99.90;;;;;;4869552;29;20029;-75
2024/01/20 00:46:01;;;;;;;17.23;7.60;;;13.00;99.90;;;;;;4870655;29;20104;-77
2024/01/20 00:48:30;;;;;;;15.20;8.13;;;13.00;99.90;;;;;;4871614;29;20106;-75
2024/01/20 00:50:56;;;;;;;18.13;7.57;;;13.00;99.90;;;;;;4867345;29;20021;-77
2024/01/20 00:53:23;;;;;;;19.77;7.95;;;13.00;99.90;;;;;;4869457;29;20038;-75
2024/01/20 00:55:49;;;;;;;13.13;6.95;;;13.00;99.90;;;;;;4869216;29;20445;-75
2024/01/20 00:58:16;;;;;;;15.80;6.93;;;12.90;99.90;;;;;;4869291;29;20112;-77
2024/01/20 01:00:42;;;;;;;21.63;8.00;;;12.90;99.90;;;;;;4871755;29;20033;-77
2024/01/20 01:03:09;;;;;;;15.40;8.02;;;12.90;99.90;;;;;;4869250;29;20431;-76
2024/01/20 01:05:35;;;;;;;13.55;7.28;;;13.00;99.90;;;;;;4871122;29;20021;-76
2024/01/20 01:08:01;;;;;;;14.80;7.18;;;13.00;99.90;;;;;;4868422;29;20056;-76
2024/01/20 01:10:28;;;;;;;26.50;7.95;;;12.90;99.90;;;;;;4870908;29;20037;-79
2024/01/20 01:12:54;;;;;;;15.05;7.38;;;12.90;99.90;;;;;;4866621;29;20014;-77
2024/01/20 01:15:21;;;;;;;18.27;7.60;;;12.90;99.90;;;;;;4870153;29;20036;-76
2024/01/20 01:17:48;;;;;;;15.70;7.53;;;12.90;99.90;;;;;;4869223;29;20037;-75
2024/01/20 01:20:15;;;;;;;19.58;8.43;;;12.80;99.90;;;;;;4870892;29;20029;-75
2024/01/20 01:22:41;;;;;;;18.20;8.00;;;12.80;99.90;;;;;;4869871;29;20086;-76
2024/01/20 01:25:09;;;;;;;19.27;8.43;;;12.80;99.90;;;;;;4852289;29;20048;-76
2024/01/20 01:27:36;;;;;;;18.67;8.18;;;12.80;99.90;;;;;;4850543;29;20436;-76
2024/01/20 01:30:04;;;;;;;15.75;8.20;;;12.80;99.90;;;;;;4853354;29;20026;-76
2024/01/20 01:32:30;;;;;;;17.88;8.10;;;12.80;99.90;;;;;;4867559;29;20026;-77
2024/01/20 01:34:57;;;;;;;22.45;8.63;;;12.90;99.90;;;;;;4860514;29;20428;-77
2024/01/20 01:37:23;;;;;;;21.42;8.55;;;12.80;99.90;;;;;;4860925;29;20137;-75
2024/01/20 01:39:50;;;;;;;17.92;8.80;;;12.90;99.90;;;;;;4861071;29;20028;-76
2024/01/20 01:42:16;;;;;;;21.33;9.60;;;12.90;99.90;;;;;;4860554;29;20037;-75
2024/01/20 01:44:43;;;;;;;17.85;8.20;;;12.90;99.90;;;;;;4861012;29;20026;-75
2024/01/20 01:47:09;;;;;;;19.27;8.55;;;12.90;99.90;;;;;;4861174;29;20033;-75
2024/01/20 01:49:36;;;;;;;18.65;7.95;;;12.80;99.90;;;;;;4863383;29;20033;-76
2024/01/20 01:52:03;;;;;;;19.92;8.48;;;12.80;99.90;;;;;;4864931;29;20030;-76
2024/01/20 01:54:30;;;;;;;22.40;9.18;;;12.80;99.90;;;;;;4864577;29;20031;-76
2024/01/20 01:57:00;;;;;;;23.10;7.85;;;12.80;99.90;;;;;;4863369;29;20038;-76
2024/01/20 01:59:29;;;;;;;14.05;7.68;;;12.80;99.90;;;;;;4846055;29;20062;-77
2024/01/20 02:01:56;;;;;;;14.60;8.23;;;12.80;99.90;;;;;;4845979;29;20037;-77
2024/01/20 02:04:23;;;;;;;16.98;8.30;;;12.80;99.90;;;;;;4845946;29;20025;-76
2024/01/20 02:06:50;;;;;;;27.95;8.57;;;12.80;99.90;;;;;;4846019;29;20038;-76
2024/01/20 02:09:23;;;;;;;20.00;7.63;;;12.70;99.90;;;;;;4873107;29;20034;-76
2024/01/20 02:11:53;;;;;;;16.27;7.47;;;12.70;99.90;;;;;;4845936;29;20048;-77
2024/01/20 02:14:20;;;;;;;20.88;7.35;;;12.70;99.90;;;;;;4845789;29;20050;-76
2024/01/20 02:16:47;;;;;;;23.35;7.47;;;12.70;99.90;;;;;;4844551;29;20557;-76
2024/01/20 02:19:13;;;;;;;18.73;8.40;;;12.70;99.90;;;;;;4862327;29;20082;-77
2024/01/20 02:21:41;;;;;;;18.88;7.90;;;12.70;99.90;;;;;;4862920;29;20041;-76
2024/01/20 02:24:11;;;;;;;17.15;8.45;;;12.70;99.90;;;;;;4864025;29;20030;-77
2024/01/20 02:26:39;;;;;;;17.30;7.82;;;12.80;99.90;;;;;;4882561;29;20140;-76
2024/01/20 02:29:05;;;;;;;13.35;7.63;;;12.70;99.90;;;;;;4866985;29;20041;-76
2024/01/20 02:31:32;;;;;;;15.43;7.90;;;12.70;99.90;;;;;;4863902;29;20054;-75
2024/01/20 02:34:00;;;;;;;15.88;7.40;;;12.70;99.90;;;;;;4863866;29;20492;-76
2024/01/20 02:36:26;;;;;;;16.38;7.90;;;12.70;99.90;;;;;;4862931;29;20033;-75
2024/01/20 02:38:53;;;;;;;19.23;8.10;;;12.80;99.90;;;;;;4877562;29;20069;-74
2024/01/20 02:41:19;;;;;;;16.30;8.15;;;12.80;99.90;;;;;;4882364;29;20113;-76
2024/01/20 02:43:45;;;;;;;20.60;7.38;;;12.80;99.90;;;;;;4882335;29;20032;-76
2024/01/20 02:46:12;;;;;;;21.55;8.20;;;12.80;99.90;;;;;;4865523;29;20040;-75
2024/01/20 02:48:38;;;;;;;18.00;8.65;;;12.80;99.90;;;;;;4870419;29;20029;-77
2024/01/20 02:51:05;;;;;;;14.10;8.13;;;12.90;99.90;;;;;;4863598;29;20065;-77
2024/01/20 02:53:32;;;;;;;24.08;8.55;;;12.90;99.90;;;;;;4863521;29;20026;-77
2024/01/20 02:55:58;;;;;;;19.63;8.57;;;12.90;99.90;;;;;;4862664;29;20082;-76
2024/01/20 02:58:25;;;;;;;22.60;8.82;;;12.90;99.90;;;;;;4873249;29;20037;-75
2024/01/20 03:00:52;;;;;;;34.13;10.30;;;13.00;99.90;;;;;;4882028;29;20360;-78
2024/01/20 03:03:18;;;;;;;23.38;9.90;;;13.00;99.90;;;;;;4881922;29;20029;-77
2024/01/20 03:05:44;;;;;;;22.42;9.48;;;13.00;99.90;;;;;;4871623;29;20041;-77
2024/01/20 03:08:11;;;;;;;30.75;10.68;;;13.00;99.90;;;;;;4871194;29;20025;-77
2024/01/20 03:10:37;;;;;;;21.60;10.55;;;13.10;99.90;;;;;;4881908;29;20420;-76
2024/01/20 03:13:04;;;;;;;24.02;8.75;;;13.20;99.90;;;;;;4881752;29;20029;-75
2024/01/20 03:15:30;;;;;;;26.55;8.32;;;13.20;99.90;;;;;;4857070;29;20077;-76
2024/01/20 03:17:57;;;;;;;19.23;7.00;;;13.20;99.90;;;;;;4869088;29;20032;-76
2024/01/20 03:20:24;;;;;;;26.65;7.63;;;13.30;99.90;;;;;;4881690;29;20055;-74
2024/01/20 03:22:50;;;;;;;26.42;7.57;;;13.30;99.90;;;;;;4881362;29;20029;-75
2024/01/20 03:25:16;;;;;;;26.20;7.10;;;13.30;99.90;;;;;;4863078;29;20041;-75
2024/01/20 03:27:43;;;;;;;19.33;6.60;;;13.30;99.90;;;;;;4862449;29;20033;-74
2024/01/20 03:30:09;;;;;;;20.10;5.80;;;13.30;99.90;;;;;;4861754;29;20040;-76
2024/01/20 03:32:36;;;;;;;16.08;5.88;;;13.30;99.90;;;;;;4862853;29;20029;-74
2024/01/20 03:35:02;;;;;;;24.60;5.78;;;13.20;99.90;;;;;;4862324;29;20514;-77
2024/01/20 03:37:29;;;;;;;26.17;6.18;;;13.20;99.90;;;;;;4862738;29;20487;-76
2024/01/20 03:39:55;;;;;;;20.40;5.53;;;13.20;99.90;;;;;;4862830;29;20026;-77
2024/01/20 03:42:22;;;;;;;28.15;5.40;;;13.20;99.90;;;;;;4862954;29;20081;-76
2024/01/20 03:44:49;;;;;;;25.52;5.07;;;13.20;99.90;;;;;;4862234;29;20030;-76
2024/01/20 03:47:15;;;;;;;25.67;4.95;;;13.20;99.90;;;;;;4862392;29;20030;-76
2024/01/20 03:49:41;;;;;;;21.50;5.00;;;13.20;99.90;;;;;;4862620;29;20025;-77
2024/01/20 03:52:08;;;;;;;35.78;5.10;;;13.10;99.90;;;;;;4861424;29;20086;-76
2024/01/20 03:54:34;;;;;;;22.95;4.53;;;13.10;99.90;;;;;;4862227;29;20464;-76
2024/01/20 03:57:00;;;;;;;30.40;5.15;;;13.10;99.90;;;;;;4862411;29;20137;-76
2024/01/20 03:59:27;;;;;;;39.65;5.78;;;13.10;99.90;;;;;;4862344;29;20030;-76
2024/01/20 04:01:53;;;;;;;22.98;3.80;;;13.10;99.90;;;;;;4861494;29;20399;-77
2024/01/20 04:04:20;;;;;;;19.73;4.13;;;13.00;99.90;;;;;;4853880;29;20026;-76
2024/01/20 04:06:46;;;;;;;27.35;4.90;;;13.00;99.90;;;;;;4862318;29;20030;-75
2024/01/20 04:09:13;;;;;;;20.25;4.63;;;13.00;99.90;;;;;;4862208;29;20053;-77
2024/01/20 04:11:42;;;;;;;32.33;5.72;;;13.00;99.90;;;;;;4858343;29;20041;-75
2024/01/20 04:14:09;;;;;;;17.50;4.28;;;13.00;99.90;;;;;;4862147;29;20025;-77
2024/01/20 04:16:38;;;;;;;18.80;3.78;;;12.90;99.90;;;;;;4862028;29;20515;-76
2024/01/20 04:19:05;;;;;;;23.23;4.68;;;12.90;99.90;;;;;;4862041;29;20037;-76
2024/01/20 04:21:31;;;;;;;16.67;4.05;;;12.90;99.90;;;;;;4861760;29;20510;-77
2024/01/20 04:23:58;;;;;;;19.77;4.70;;;12.90;99.90;;;;;;4861958;29;20053;-78
2024/01/20 04:26:25;;;;;;;18.35;4.40;;;12.80;99.90;;;;;;4861925;29;20057;-78
2024/01/20 04:28:51;;;;;;;17.05;3.83;;;12.80;99.90;;;;;;4861835;29;20038;-76
2024/01/20 04:31:18;;;;;;;26.02;4.72;;;12.60;99.90;;;;;;4861582;29;20372;-76
2024/01/20 04:33:44;;;;;;;19.85;5.78;;;12.60;99.90;;;;;;4861557;29;20029;-76
2024/01/20 04:36:10;;;;;;;14.27;3.95;;;12.50;99.90;;;;;;4845235;29;20025;-76
2024/01/20 04:38:37;;;;;;;18.80;4.53;;;12.50;99.90;;;;;;4861758;29;20037;-75
2024/01/20 04:41:03;;;;;;;17.65;4.18;;;12.50;99.90;;;;;;4860537;29;20044;-76
2024/01/20 04:43:30;;;;;;;23.67;4.55;;;12.50;99.90;;;;;;4861379;29;20463;-76
2024/01/20 04:45:56;;;;;;;17.45;4.30;;;12.50;99.90;;;;;;4845504;29;20026;-77
2024/01/20 04:48:23;;;;;;;22.77;5.70;;;12.50;99.90;;;;;;4861557;29;20491;-75
2024/01/20 04:50:50;;;;;;;27.45;5.05;;;12.50;99.90;;;;;;4861492;29;20034;-78
2024/01/20 04:53:16;;;;;;;30.92;5.80;;;12.40;99.90;;;;;;4861322;29;20044;-76
2024/01/20 04:55:46;;;;;;;22.17;4.88;;;12.40;99.90;;;;;;4861390;29;20424;-76
2024/01/20 04:58:12;;;;;;;19.42;4.88;;;12.30;99.90;;;;;;4861325;29;20037;-78
2024/01/20 05:00:39;;;;;;;14.90;4.35;;;12.30;99.90;;;;;;4860209;29;20030;-77
2024/01/20 05:03:06;;;;;;;21.27;4.68;;;12.30;99.90;;;;;;4848802;29;20037;-78
2024/01/20 05:05:33;;;;;;;20.95;5.28;;;12.30;99.90;;;;;;4861360;29;20108;-77
2024/01/20 05:08:00;;;;;;;19.55;6.10;;;12.30;99.90;;;;;;4846421;29;20028;-77
2024/01/20 05:10:26;;;;;;;8.60;4.05;;;12.30;99.90;;;;;;4861360;29;20499;-75
2024/01/20 05:12:52;;;;;;;27.45;4.90;;;12.20;99.90;;;;;;4850631;29;20124;-76
2024/01/20 05:15:19;;;;;;;9.98;3.85;;;12.20;99.90;;;;;;4861201;29;20045;-75
2024/01/20 05:17:45;;;;;;;16.92;4.55;;;12.20;99.90;;;;;;4844634;29;20456;-79
2024/01/20 05:20:21;;;;;;;12.95;4.07;;;12.20;99.90;;;;;;4861201;29;20037;-76
2024/01/20 05:22:48;;;;;;;17.20;4.38;;;12.10;99.90;;;;;;4860490;29;20033;-76
2024/01/20 05:25:17;;;;;;;13.27;4.75;;;12.00;99.90;;;;;;4844331;29;20080;-75
2024/01/20 05:27:44;;;;;;;16.52;4.47;;;12.00;99.90;;;;;;4861148;29;20033;-77
2024/01/20 05:30:11;;;;;;;13.52;4.40;;;12.00;99.90;;;;;;4860527;29;20040;-77
2024/01/20 05:32:42;;;;;;;10.77;3.67;;;12.00;99.90;;;;;;4860798;29;20104;-75
2024/01/20 05:35:08;;;;;;;15.18;4.38;;;11.90;99.90;;;;;;4859693;29;20514;-77
2024/01/20 05:37:35;;;;;;;10.20;3.28;;;11.90;99.90;;;;;;4860898;29;20096;-77
2024/01/20 05:40:03;;;;;;;7.75;3.42;;;11.80;99.90;;;;;;4861326;29;20134;-76
2024/01/20 05:42:30;;;;;;;11.73;3.47;;;11.80;99.90;;;;;;4858951;29;20037;-78
2024/01/20 05:45:00;;;;;;;10.25;3.65;;;11.70;99.90;;;;;;4860820;29;20448;-76
2024/01/20 05:47:26;;;;;;;6.18;3.58;;;11.60;99.90;;;;;;4860998;29;20086;-77
2024/01/20 05:49:53;;;;;;;11.85;5.25;;;11.60;99.90;;;;;;4842842;29;20029;-76
2024/01/20 05:52:19;;;;;;;7.70;3.00;;;11.60;99.90;;;;;;4843861;29;20081;-76
2024/01/20 05:54:46;;;;;;;13.27;3.33;;;11.60;99.90;;;;;;4844449;29;20028;-76
2024/01/20 05:57:12;;;;;;;10.88;2.97;;;11.50;99.90;;;;;;4844170;29;20531;-76
2024/01/20 05:59:39;;;;;;;9.48;3.35;;;11.40;99.90;;;;;;4860825;29;20070;-76
2024/01/20 06:02:05;;;;;;;12.13;2.75;;;11.40;99.90;;;;;;4860830;29;20108;-75
2024/01/20 06:04:32;;;;;;;6.20;3.13;;;11.30;99.90;;;;;;4860657;29;20040;-76
2024/01/20 06:06:58;;;;;;;8.45;3.00;;;11.30;99.90;;;;;;4860729;29;20062;-76
2024/01/20 06:09:25;;;;;;;16.02;3.35;;;11.30;99.90;;;;;;4860752;29;20420;-76
2024/01/20 06:11:52;;;;;;;12.98;3.60;;;11.30;99.90;;;;;;4860811;29;20042;-76
2024/01/20 06:14:18;;;;;;;9.20;3.08;;;11.20;99.90;;;;;;4846359;29;20033;-75
2024/01/20 06:16:45;;;;;;;17.77;4.57;;;11.20;99.90;;;;;;4860581;29;20459;-76
2024/01/20 06:19:12;;;;;;;13.35;2.97;;;11.20;99.90;;;;;;4860745;29;20046;-76
2024/01/20 06:21:39;;;;;;;7.43;3.50;;;11.10;99.90;;;;;;4860925;29;20029;-76
2024/01/20 06:24:05;;;;;;;8.60;3.30;;;11.10;99.90;;;;;;4860485;29;20053;-76
2024/01/20 06:26:32;;;;;;;12.35;3.50;;;11.10;99.90;;;;;;4860195;29;20058;-75
2024/01/20 06:28:59;;;;;;;9.52;3.90;;;11.10;99.90;;;;;;4852038;29;20041;-76
2024/01/20 06:31:27;;;;;;;19.73;3.33;;;11.10;99.90;;;;;;4859461;29;20057;-77
2024/01/20 06:33:54;;;;;;;16.77;4.43;;;11.10;99.90;;;;;;4860807;29;20534;-74
2024/01/20 06:36:22;;;;;;;11.00;3.30;;;11.00;99.90;;;;;;4863129;29;20492;-77
2024/01/20 06:38:48;;;;;;;11.32;4.47;;;11.00;99.90;;;;;;4853771;29;20109;-74
2024/01/20 06:41:16;;;;;;;8.18;3.40;;;11.00;99.90;;;;;;4864125;29;20472;-76
2024/01/20 06:43:42;;;;;;;11.13;3.35;;;11.00;99.90;;;;;;4862523;29;20033;-76
2024/01/20 06:46:09;;;;;;;7.28;3.50;;;10.90;99.90;;;;;;4863572;29;20030;-76
2024/01/20 06:48:36;;;;;;;6.45;3.33;;;10.90;99.90;;;;;;4863622;29;20066;-76
2024/01/20 06:51:03;;;;;;;13.00;3.75;;;10.90;99.90;;;;;;4862493;29;20392;-76
2024/01/20 06:53:31;;;;;;;5.85;3.83;;;10.90;99.90;;;;;;4863573;29;20030;-75
2024/01/20 06:56:07;;;;;;;9.93;3.90;;;10.80;99.90;;;;;;4853291;29;20037;-77
2024/01/20 06:58:34;;;;;;;8.68;3.90;;;10.80;99.90;;;;;;4851235;29;20519;-75
2024/01/20 07:01:04;;;;;;;6.68;4.43;;;10.80;99.90;;;;;;4863883;29;20030;-75
2024/01/20 07:03:34;;;;;;;14.93;4.05;;;10.70;99.90;;;;;;4863937;29;20090;-76
2024/01/20 07:06:04;;;;;;;14.50;4.47;;;10.70;99.90;;;;;;4863465;29;20381;-77
2024/01/20 07:08:31;;;;;;;9.02;5.13;;;10.70;99.90;;;;;;4863201;29;20479;-74
2024/01/20 07:10:57;;;;;;;9.70;4.90;;;10.60;99.90;;;;;;4863418;29;20025;-74
2024/01/20 07:13:24;;;;;;;8.73;4.40;;;10.60;99.90;;;;;;4863101;29;20033;-76
2024/01/20 07:15:51;;;;;;;6.60;4.20;;;10.60;99.90;;;;;;4862801;29;20026;-77
2024/01/20 07:18:17;;;;;;;11.23;4.40;;;10.60;99.90;;;;;;4862864;29;20579;-76
2024/01/20 07:20:44;;;;;;;8.80;3.90;;;10.70;99.90;;;;;;4857037;29;20026;-75
2024/01/20 07:23:11;;;;;;;9.52;3.80;;;10.60;99.90;;;;;;4863264;29;20567;-76
2024/01/20 07:25:39;;;;;;;8.85;4.65;;;10.60;99.90;;;;;;4862930;29;20129;-75
2024/01/20 07:28:06;;;;;;;9.70;3.85;;;10.60;99.90;;;;;;4862688;29;20518;-76
2024/01/20 07:30:32;;;;;;;11.07;4.15;;;10.60;99.90;;;;;;4862497;29;20120;-75
2024/01/20 07:32:59;;;;;;;6.28;3.63;;;10.60;99.90;;;;;;4862719;29;20025;-76
2024/01/20 07:35:26;;;;;;;9.43;3.60;;;10.50;99.90;;;;;;4831256;29;20033;-77
2024/01/20 07:37:52;;;;;;;9.80;4.78;;;10.60;99.90;;;;;;4862547;29;20068;-76
2024/01/20 07:40:19;;;;;;;10.75;4.00;;;10.60;99.90;;;;;;4862651;29;20085;-77
2024/01/20 07:42:45;;;;;;;10.77;4.00;;;10.50;99.90;;;;;;4862738;29;20041;-75
2024/01/20 07:45:12;;;;;;;6.93;3.75;;;10.50;99.90;;;;;;4862679;29;20065;-76
2024/01/20 07:47:38;;;;;;;11.30;3.90;;;10.50;99.90;;;;;;4861598;29;20033;-77
2024/01/20 07:50:06;;;;;;;10.07;3.85;;;10.50;99.90;;;;;;4861103;29;20041;-77
2024/01/20 07:52:32;;;;;;;8.43;3.80;;;10.50;99.90;;;;;;4862604;29;20037;-74
2024/01/20 07:54:59;;;;;;;8.80;4.65;;;10.50;99.90;;;;;;4846146;29;20026;-76
2024/01/20 07:57:25;;;;;;;11.57;4.40;;;10.50;99.90;;;;;;4860285;29;20029;-76
2024/01/20 07:59:52;;;;;;;10.30;4.35;;;10.40;99.90;;;;;;4862226;29;20029;-76
2024/01/20 08:02:18;;;;;;;13.32;4.03;;;10.30;99.90;;;;;;4862447;29;20119;-77
2024/01/20 08:04:46;;;;;;;4.68;3.25;;;10.30;99.90;;;;;;4861150;29;20021;-76
2024/01/20 08:07:13;;;;;;;18.90;5.70;;;10.20;99.90;;;;;;4862142;29;20112;-76
2024/01/20 08:09:40;;;;;;;8.63;3.72;;;10.20;99.90;;;;;;4862039;29;20041;-76
2024/01/20 08:12:06;;;;;;;9.27;3.33;;;10.20;99.90;;;;;;4862167;29;20026;-78
2024/01/20 08:14:33;;;;;;;9.60;4.53;;;10.20;99.90;;;;;;4861926;29;20460;-76
2024/01/20 08:17:00;;;;;;;4.50;3.45;;;10.20;99.90;;;;;;4862121;29;20050;-76
2024/01/20 08:19:26;;;;;;;8.98;3.00;;;10.20;99.90;;;;;;4862010;29;20025;-78
2024/01/20 08:21:53;;;;;;;6.90;3.63;;;10.20;99.90;;;;;;4862108;29;20033;-75
2024/01/20 08:24:20;;;;;;;8.45;3.35;;;10.20;99.90;;;;;;4859323;29;20017;-77
2024/01/20 08:26:46;;;;;;;3.50;3.20;;;10.30;99.90;;;;;;4852726;29;20447;-76
2024/01/20 08:29:12;;;;;;;10.27;3.10;;;10.30;99.90;;;;;;4869134;29;20093;-75
2024/01/20 08:31:48;;;;;;;20.38;4.60;;;10.30;99.90;;;;;;4868923;29;20017;-76
2024/01/20 08:34:20;;;;;;;5.95;3.13;;;10.30;99.90;;;;;;4855024;29;20035;-78
2024/01/20 08:36:52;;;;;;;13.85;3.30;;;10.30;99.90;;;;;;4855440;29;20424;-75
2024/01/20 08:39:19;;;;;;;8.75;3.20;;;10.30;99.90;;;;;;4868987;29;20025;-75
2024/01/20 08:41:46;;;;;;;7.13;3.25;;;10.20;99.90;;;;;;4872159;29;20018;-75
2024/01/20 08:44:13;;;;;;;6.93;3.30;;;10.20;99.90;;;;;;4856576;29;20143;-76
2024/01/20 08:46:40;;;;;;;7.55;2.85;;;10.20;99.90;;;;;;4852763;29;20036;-75
2024/01/20 08:49:09;;;;;;;16.48;4.97;;;10.10;99.90;;;;;;4879073;29;20031;-82
2024/01/20 08:51:42;;;;;;;18.95;3.83;;;10.10;99.90;;;;;;4853091;29;20034;-78
2024/01/20 08:54:34;;;;;;;10.63;3.28;;;10.10;99.90;;;;;;4875084;29;20034;-84
2024/01/20 08:57:01;;;;;;;13.40;3.97;;;10.10;99.90;;;;;;4839102;29;20038;-76
2024/01/20 08:59:27;;;;;;;18.88;3.92;;;10.10;99.90;;;;;;4871730;29;20025;-80
2024/01/20 09:01:54;;;;;;;6.78;3.10;;;10.20;99.90;;;;;;4879687;29;20170;-80
2024/01/20 09:04:31;;;;;;;14.80;2.75;;;10.10;99.90;;;;;;4863941;29;20024;-77
2024/01/20 09:06:58;;;;;;;7.13;2.78;;;10.10;99.90;;;;;;4851111;29;20025;-76
2024/01/20 09:09:26;;;;;;;14.20;2.70;;;10.10;99.90;;;;;;4869812;29;20029;-78
2024/01/20 09:11:53;;;;;;;8.27;2.97;;;10.00;99.90;;;;;;4881382;29;20034;-75
2024/01/20 09:14:19;;;;;;;11.00;2.65;;;10.00;99.90;;;;;;4876152;29;20029;-76
2024/01/20 09:16:53;;;;;;;15.10;3.78;;;9.90;99.90;;;;;;4888214;29;20030;-79
2024/01/20 09:19:20;;;;;;;13.43;3.67;;;9.90;99.90;;;;;;4881066;29;20089;-77
2024/01/20 09:21:56;;;;;;;16.48;3.08;;;9.80;99.90;;;;;;4880058;29;20021;-81
2024/01/20 09:24:29;;;;;;;13.43;3.00;;;9.80;99.90;;;;;;4837022;29;20128;-81
2024/01/20 09:27:02;;;;;;;12.13;3.40;;;9.80;99.90;;;;;;4852537;29;20100;-80
2024/01/20 09:29:33;;;;;;;14.88;3.92;;;9.80;99.90;;;;;;4859425;29;20038;-77
2024/01/20 09:31:59;;;;;;;15.38;3.50;;;9.80;99.90;;;;;;4874348;29;20501;-77
2024/01/20 09:34:26;;;;;;;11.38;3.90;;;9.80;99.90;;;;;;4856911;29;20105;-75
2024/01/20 09:36:52;;;;;;;13.52;3.13;;;9.90;99.90;;;;;;4858126;29;20037;-76
2024/01/20 09:39:20;;;;;;;9.85;3.13;;;9.80;99.90;;;;;;4875749;29;20017;-77
2024/01/20 10:47:41;;;;;;;9.52;4.93;;;10.00;99.90;;;;;;5815575;23;20019;-83
2024/01/20 10:50:19;;;;;;;12.90;4.80;;;9.80;99.90;;;;;;4850823;29;20444;-86
2024/01/20 10:52:47;;;;;;;9.40;5.50;;;9.80;99.90;;;;;;4851540;29;20061;-86
2024/01/20 10:55:15;;;;;;;10.80;4.82;;;9.70;99.90;;;;;;4852329;29;20033;-85
2024/01/20 10:57:42;;;;;;;7.75;4.72;;;9.70;99.90;;;;;;4870968;29;20148;-85
2024/01/20 11:00:14;;;;;;;10.73;4.30;;;9.60;99.90;;;;;;4867438;29;20439;-86
2024/01/20 11:02:45;;;;;;;12.68;5.85;;;9.70;99.90;;;;;;4869773;29;20033;-86
2024/01/20 11:05:20;;;;;;;9.93;5.60;;;9.70;99.90;;;;;;4854765;29;20039;-87
2024/01/20 11:08:05;;;;;;;9.85;5.18;;;9.70;99.90;;;;;;4882882;29;20028;-85
2024/01/20 11:10:45;;;;;;;8.65;4.90;;;9.60;99.90;;;;;;4884737;29;20029;-85
2024/01/20 11:13:13;;;;;;;8.98;5.18;;;9.60;99.90;;;;;;4850143;29;20040;-85
2024/01/20 11:15:41;;;;;;;15.23;5.10;;;9.50;99.90;;;;;;4884998;29;20028;-86
2024/01/20 11:18:18;;;;;;;9.60;5.18;;;9.50;99.90;;;;;;4885335;29;20162;-85
2024/01/20 11:20:57;;;;;;;9.65;5.18;;;9.50;99.90;;;;;;4869201;29;20474;-86
2024/01/20 11:23:25;;;;;;;14.80;5.53;;;9.40;99.90;;;;;;4871221;29;20029;-85
2024/01/20 11:25:52;;;;;;;11.70;5.90;;;9.40;99.90;;;;;;4882260;29;20393;-84
2024/01/20 11:28:31;;;;;;;8.18;6.22;;;9.40;99.90;;;;;;4883654;29;20099;-85
2024/01/20 11:31:18;;;;;;;10.90;6.10;;;9.40;99.90;;;;;;4852919;29;20068;-85
2024/01/20 11:33:45;;;;;;;7.90;5.95;;;9.40;99.90;;;;;;4882173;29;20025;-87
2024/01/20 11:36:12;;;;;;;13.50;6.72;;;9.20;99.90;;;;;;4885564;29;20545;-86
2024/01/20 11:38:40;;;;;;;10.80;6.53;;;9.30;99.90;;;;;;4885356;29;20037;-86
2024/01/20 11:41:20;;;;;;;17.48;8.05;;;9.40;99.90;;;;;;4869475;29;20020;-86
2024/01/20 11:43:47;;;;;;;14.02;6.03;;;9.50;99.90;;;;;;4884815;29;20032;-87
2024/01/20 11:46:14;;;;;;;7.55;6.18;;;9.40;99.90;;;;;;4884695;29;20029;-87
2024/01/20 11:48:42;;;;;;;10.60;7.68;;;9.30;99.90;;;;;;4884646;29;20059;-86
2024/01/20 11:51:10;;;;;;;18.48;7.22;;;9.40;99.90;;;;;;4885087;29;20043;-87
2024/01/20 11:53:40;;;;;;;10.25;6.53;;;9.40;99.90;;;;;;4869513;29;20060;-87
2024/01/20 11:56:10;;;;;;;11.10;7.07;;;9.40;99.90;;;;;;4874045;29;20020;-86
2024/01/20 11:58:36;;;;;;;17.20;7.18;;;9.30;99.90;;;;;;4884982;29;20037;-86
2024/01/20 12:01:04;;;;;;;21.33;7.50;;;9.40;99.90;;;;;;4884915;29;20032;-87
2024/01/20 12:03:30;;;;;;;9.10;6.80;;;9.40;99.90;;;;;;4884885;29;20034;-86
2024/01/20 12:06:03;;;;;;;11.40;7.25;;;9.50;99.90;;;;;;4884012;29;20024;-87
2024/01/20 12:08:29;;;;;;;16.52;6.95;;;9.40;99.90;;;;;;4867973;29;20036;-86
2024/01/20 12:10:56;;;;;;;15.00;7.30;;;9.50;99.90;;;;;;4884337;29;20360;-86
2024/01/20 12:13:25;;;;;;;14.50;6.75;;;9.40;99.90;;;;;;4883954;29;20051;-86
2024/01/20 12:15:52;;;;;;;12.50;8.52;;;9.40;99.90;;;;;;4883930;29;20048;-85
2024/01/20 12:18:19;;;;;;;10.82;8.75;;;9.40;99.90;;;;;;4867895;29;20467;-85
2024/01/20 12:20:46;;;;;;;10.73;9.10;;;9.30;99.90;;;;;;4867376;29;20561;-84
2024/01/20 12:23:20;;;;;;;16.75;10.73;;;9.40;99.90;;;;;;4868239;29;20025;-85
2024/01/20 12:25:52;;;;;;;12.90;9.70;;;9.40;99.90;;;;;;4885216;29;20122;-84
2024/01/20 12:28:24;;;;;;;14.15;10.30;;;9.40;99.90;;;;;;4883718;29;20051;-85
2024/01/20 12:30:51;;;;;;;15.98;9.20;;;9.40;99.90;;;;;;4875318;29;20439;-88
2024/01/20 12:33:18;;;;;;;20.67;10.52;;;9.40;99.90;;;;;;4867867;29;20020;-87
2024/01/20 12:35:45;;;;;;;9.70;7.78;;;9.40;99.90;;;;;;4884942;29;20041;-89
2024/01/20 12:38:15;;;;;;;14.27;9.38;;;9.50;99.90;;;;;;4884207;29;20032;-89
2024/01/20 12:40:42;;;;;;;19.42;10.68;;;9.40;99.90;;;;;;4868557;29;20036;-88
2024/01/20 12:43:08;;;;;;;18.10;8.77;;;9.30;99.90;;;;;;4900691;29;20045;-87
2024/01/20 12:45:35;;;;;;;13.65;9.00;;;9.30;99.90;;;;;;4886505;29;20035;-86
2024/01/20 12:48:02;;;;;;;14.88;9.43;;;9.20;99.90;;;;;;4884633;29;20045;-87
2024/01/20 12:50:30;;;;;;;12.63;9.32;;;9.10;99.90;;;;;;4884298;29;20035;-88
2024/01/20 12:52:56;;;;;;;18.35;10.13;;;9.20;99.90;;;;;;4884090;29;20172;-88
2024/01/20 12:55:23;;;;;;;10.90;10.00;;;9.30;99.90;;;;;;4900139;29;20035;-86
2024/01/20 12:57:50;;;;;;;34.55;11.02;;;9.20;99.90;;;;;;4898352;29;20037;-86
2024/01/20 13:00:18;;;;;;;12.38;9.57;;;9.10;99.90;;;;;;4883116;29;20020;-88
2024/01/20 13:02:45;;;;;;;11.73;9.77;;;9.20;99.90;;;;;;4883183;29;20075;-86
2024/01/20 13:05:12;;;;;;;16.77;9.82;;;9.30;99.90;;;;;;4867652;29;20029;-87
2024/01/20 13:07:38;;;;;;;21.40;10.27;;;9.30;99.90;;;;;;4867889;29;20493;-86
2024/01/20 13:10:05;;;;;;;13.68;10.15;;;9.30;99.90;;;;;;4883705;29;20020;-87
2024/01/20 13:12:36;;;;;;;15.93;11.35;;;9.30;99.90;;;;;;4899561;29;20036;-86
2024/01/20 13:15:04;;;;;;;18.38;9.35;;;9.10;99.90;;;;;;4900065;29;20028;-86
2024/01/20 13:17:31;;;;;;;26.42;9.77;;;9.20;99.90;;;;;;4882808;29;20076;-82
2024/01/20 13:19:58;;;;;;;16.20;10.75;;;9.20;99.90;;;;;;4878432;29;20487;-81
2024/01/20 13:22:26;;;;;;;13.15;9.38;;;9.20;99.90;;;;;;4878582;29;20044;-81
2024/01/20 13:24:53;;;;;;;21.27;10.18;;;9.30;99.90;;;;;;4862783;29;20386;-79
2024/01/20 13:27:20;;;;;;;23.90;11.20;;;9.20;99.90;;;;;;4859354;29;20029;-81
2024/01/20 13:29:49;;;;;;;13.45;10.77;;;9.20;99.90;;;;;;4872663;29;20036;-81
2024/01/20 13:32:16;;;;;;;20.10;10.57;;;9.30;99.90;;;;;;4877838;29;20033;-80
2024/01/20 13:34:48;;;;;;;17.10;10.30;;;9.30;99.90;;;;;;4877426;29;20037;-82
2024/01/20 13:37:18;;;;;;;12.25;9.85;;;9.20;99.90;;;;;;4878123;29;20045;-80
2024/01/20 13:39:48;;;;;;;23.25;11.00;;;9.10;99.90;;;;;;4878909;29;20029;-79
2024/01/20 13:42:16;;;;;;;14.05;10.20;;;9.10;99.90;;;;;;4878628;29;20040;-80
2024/01/20 13:44:43;;;;;;;12.35;10.10;;;9.10;99.90;;;;;;4879861;29;20108;-80
2024/01/20 13:47:10;;;;;;;10.77;9.80;;;9.10;99.90;;;;;;4897617;29;20068;-80
2024/01/20 13:49:37;;;;;;;11.63;9.93;;;9.00;99.90;;;;;;4897319;29;20053;-79